Time;durP1;ratioP1;P1;durP2;ratioP2;P2;SDS_P1;SDS_P2;PMS_P1;PMS_P2;Temp;Humidity;BMP_temperature;BMP_pressure;BME280_temperature;BME280_humidity;BME280_pressure;Samples;Min_cycle;Max_cycle;Signal;HPM_P1;HPM_P2
2021/04/15 00:01:11;;;;;;;7.40;4.00;;;;;;;;;;5120212;28;20474;-71
2021/04/15 00:03:39;;;;;;;7.10;4.37;;;;;;;;;;5120359;28;20454;-71
2021/04/15 00:06:11;;;;;;;7.10;3.77;;;;;;;;;;5120301;28;20910;-71
2021/04/15 00:08:38;;;;;;;7.90;4.70;;;;;;;;;;5120610;28;20462;-71
2021/04/15 00:11:08;;;;;;;8.27;4.63;;;;;;;;;;5119975;28;20446;-71
2021/04/15 00:13:36;;;;;;;6.67;4.17;;;;;;;;;;5119791;28;20498;-71
2021/04/15 00:16:16;;;;;;;8.87;4.53;;;;;;;;;;5120273;28;20462;-71
2021/04/15 00:18:45;;;;;;;11.40;4.23;;;;;;;;;;5119361;28;20937;-71
2021/04/15 00:21:13;;;;;;;8.17;4.63;;;;;;;;;;5119963;28;20439;-71
2021/04/15 00:23:50;;;;;;;8.13;4.83;;;;;;;;;;5119659;28;20731;-71
2021/04/15 00:26:27;;;;;;;10.40;5.63;;;;;;;;;;5119151;28;20741;-71
2021/04/15 00:28:56;;;;;;;6.57;5.77;;;;;;;;;;5119648;28;20518;-71
2021/04/15 00:31:24;;;;;;;8.43;5.60;;;;;;;;;;5119921;28;20460;-72
2021/04/15 00:33:53;;;;;;;7.73;5.23;;;;;;;;;;5119511;28;20483;-71
2021/04/15 00:36:21;;;;;;;9.00;5.57;;;;;;;;;;5119338;28;20500;-72
2021/04/15 00:38:52;;;;;;;9.13;6.03;;;;;;;;;;5119570;28;20470;-71
2021/04/15 00:41:25;;;;;;;8.77;5.50;;;;;;;;;;5119157;28;20459;-71
2021/04/15 00:43:54;;;;;;;9.27;5.63;;;;;;;;;;5119809;28;20458;-71
2021/04/15 00:46:40;;;;;;;9.33;6.13;;;;;;;;;;5119511;28;20462;-71
2021/04/15 00:49:17;;;;;;;7.80;6.20;;;;;;;;;;5119581;28;20458;-71
2021/04/15 00:51:52;;;;;;;7.53;5.83;;;;;;;;;;5119311;28;20435;-71
2021/04/15 00:54:30;;;;;;;8.57;5.83;;;;;;;;;;5119540;28;20921;-71
2021/04/15 00:56:58;;;;;;;12.27;5.93;;;;;;;;;;5119563;28;20723;-71
2021/04/15 00:59:28;;;;;;;6.80;4.93;;;;;;;;;;5119490;28;20867;-71
2021/04/15 01:01:56;;;;;;;7.37;4.20;;;;;;;;;;5119373;28;20529;-71
2021/04/15 01:04:23;;;;;;;10.30;5.90;;;;;;;;;;5119372;28;20466;-71
2021/04/15 01:06:50;;;;;;;7.83;4.70;;;;;;;;;;5119012;28;20474;-70
2021/04/15 01:09:18;;;;;;;9.53;5.07;;;;;;;;;;5119295;28;20867;-70
2021/04/15 01:11:56;;;;;;;10.63;5.60;;;;;;;;;;5118863;28;20451;-71
2021/04/15 01:14:33;;;;;;;10.00;6.20;;;;;;;;;;5119585;28;20482;-72
2021/04/15 01:17:02;;;;;;;15.30;5.83;;;;;;;;;;5119289;28;20591;-71
2021/04/15 01:19:47;;;;;;;8.70;5.23;;;;;;;;;;5118694;28;20480;-71
2021/04/15 01:22:22;;;;;;;10.10;6.00;;;;;;;;;;5098495;28;20451;-71
2021/04/15 01:24:51;;;;;;;11.40;5.57;;;;;;;;;;5112293;28;20447;-72
2021/04/15 01:27:26;;;;;;;10.40;6.10;;;;;;;;;;5120109;28;20870;-72
2021/04/15 01:29:58;;;;;;;6.97;5.33;;;;;;;;;;5119789;28;20453;-71
2021/04/15 01:32:27;;;;;;;10.70;5.60;;;;;;;;;;5118630;28;20460;-71
2021/04/15 01:34:57;;;;;;;8.93;5.23;;;;;;;;;;5119724;28;20520;-71
2021/04/15 01:37:31;;;;;;;8.50;5.70;;;;;;;;;;5121035;28;20807;-72
2021/04/15 01:40:01;;;;;;;9.97;6.50;;;;;;;;;;5118434;28;20451;-71
2021/04/15 01:42:31;;;;;;;8.23;6.13;;;;;;;;;;5119449;28;20478;-71
2021/04/15 01:45:02;;;;;;;9.57;6.03;;;;;;;;;;5118670;28;20452;-70
2021/04/15 01:47:31;;;;;;;13.07;8.03;;;;;;;;;;5120144;28;20443;-71
2021/04/15 01:50:00;;;;;;;7.00;6.20;;;;;;;;;;5119288;28;20459;-72
2021/04/15 01:52:29;;;;;;;13.33;7.30;;;;;;;;;;5118104;28;20459;-71
2021/04/15 01:54:59;;;;;;;11.70;7.70;;;;;;;;;;5120094;28;20860;-71
2021/04/15 01:57:27;;;;;;;11.70;6.67;;;;;;;;;;5118137;28;20863;-72
2021/04/15 02:00:00;;;;;;;11.57;7.77;;;;;;;;;;5118493;28;20459;-71
2021/04/15 02:02:30;;;;;;;11.30;6.83;;;;;;;;;;5118304;28;20450;-71
2021/04/15 02:05:04;;;;;;;14.50;6.93;;;;;;;;;;5118858;28;20948;-71
2021/04/15 02:07:35;;;;;;;13.53;6.47;;;;;;;;;;5118905;28;20449;-71
2021/04/15 02:10:02;;;;;;;9.77;6.33;;;;;;;;;;5117974;28;20860;-71
2021/04/15 02:12:30;;;;;;;10.97;7.37;;;;;;;;;;5117848;28;20510;-71
2021/04/15 02:15:01;;;;;;;8.43;5.77;;;;;;;;;;5117572;28;20470;-71
2021/04/15 02:17:31;;;;;;;9.43;6.03;;;;;;;;;;5117606;28;20485;-71
2021/04/15 02:20:00;;;;;;;8.20;5.37;;;;;;;;;;5117965;28;20455;-71
2021/04/15 02:22:30;;;;;;;9.70;6.10;;;;;;;;;;5117358;28;20462;-70
2021/04/15 02:25:01;;;;;;;10.50;6.50;;;;;;;;;;5117905;28;20836;-70
2021/04/15 02:27:32;;;;;;;10.10;5.87;;;;;;;;;;5117566;28;20497;-71
2021/04/15 02:30:00;;;;;;;10.10;6.73;;;;;;;;;;5117335;28;20463;-71
2021/04/15 02:32:30;;;;;;;11.53;6.40;;;;;;;;;;5117521;28;20740;-71
2021/04/15 02:35:02;;;;;;;8.63;5.63;;;;;;;;;;5117483;28;20470;-70
2021/04/15 02:37:31;;;;;;;9.03;6.23;;;;;;;;;;5117713;28;20582;-70
2021/04/15 02:40:01;;;;;;;8.70;6.67;;;;;;;;;;5117552;28;20458;-71
2021/04/15 02:42:31;;;;;;;9.23;7.17;;;;;;;;;;5117409;28;20470;-71
2021/04/15 02:45:02;;;;;;;11.17;7.60;;;;;;;;;;5116942;28;20446;-70
2021/04/15 02:47:36;;;;;;;8.30;6.37;;;;;;;;;;5117479;28;20462;-71
2021/04/15 02:50:07;;;;;;;15.50;7.67;;;;;;;;;;5116268;28;20453;-71
2021/04/15 02:52:36;;;;;;;15.50;7.73;;;;;;;;;;5116602;28;20476;-71
2021/04/15 02:55:05;;;;;;;10.50;7.37;;;;;;;;;;5096379;28;20454;-71
2021/04/15 02:57:35;;;;;;;9.83;7.53;;;;;;;;;;5104038;28;20462;-71
2021/04/15 03:00:05;;;;;;;14.00;8.53;;;;;;;;;;5117048;28;20783;-71
2021/04/15 03:02:35;;;;;;;11.80;8.37;;;;;;;;;;5116904;28;20549;-71
2021/04/15 03:05:04;;;;;;;12.60;9.47;;;;;;;;;;5116981;28;20497;-71
2021/04/15 03:07:34;;;;;;;15.00;8.10;;;;;;;;;;5116882;28;20458;-70
2021/04/15 03:10:03;;;;;;;11.70;8.13;;;;;;;;;;5116722;28;20448;-71
2021/04/15 03:12:32;;;;;;;11.87;9.10;;;;;;;;;;5099486;28;20483;-70
2021/04/15 03:15:03;;;;;;;13.00;8.40;;;;;;;;;;5096840;28;20491;-71
2021/04/15 03:17:32;;;;;;;16.47;8.77;;;;;;;;;;5097469;28;20444;-71
2021/04/15 03:20:01;;;;;;;14.30;8.93;;;;;;;;;;5109814;28;20513;-71
2021/04/15 03:22:30;;;;;;;10.60;7.90;;;;;;;;;;5116649;28;20445;-70
2021/04/15 03:24:59;;;;;;;9.83;7.27;;;;;;;;;;5116893;28;20447;-70
2021/04/15 03:27:42;;;;;;;7.37;6.30;;;;;;;;;;5115980;28;20470;-71
2021/04/15 03:30:11;;;;;;;9.93;7.57;;;;;;;;;;5116491;28;20530;-70
2021/04/15 03:32:40;;;;;;;9.37;6.53;;;;;;;;;;5117817;28;20461;-70
2021/04/15 03:35:10;;;;;;;15.27;9.60;;;;;;;;;;5116566;28;20466;-71
2021/04/15 03:37:40;;;;;;;11.47;8.70;;;;;;;;;;5117440;28;20586;-71
2021/04/15 03:40:10;;;;;;;14.80;8.47;;;;;;;;;;5111345;28;20491;-70
2021/04/15 03:42:39;;;;;;;12.10;7.20;;;;;;;;;;5111794;28;20469;-71
2021/04/15 03:45:09;;;;;;;9.53;7.03;;;;;;;;;;5116469;28;20446;-70
2021/04/15 03:47:38;;;;;;;14.43;8.40;;;;;;;;;;5110657;28;20452;-70
2021/04/15 03:50:08;;;;;;;14.03;7.47;;;;;;;;;;5097925;28;20448;-70
2021/04/15 03:52:44;;;;;;;12.20;7.87;;;;;;;;;;5116251;28;20552;-70
2021/04/15 03:55:21;;;;;;;16.60;9.50;;;;;;;;;;5116627;28;20450;-70
2021/04/15 03:57:50;;;;;;;12.40;8.53;;;;;;;;;;5115622;28;20473;-70
2021/04/15 04:00:41;;;;;;;10.80;7.90;;;;;;;;;;5115612;28;20960;-70
2021/04/15 04:03:10;;;;;;;12.20;7.60;;;;;;;;;;5100069;28;20463;-71
2021/04/15 04:05:40;;;;;;;12.87;8.00;;;;;;;;;;5103045;28;20466;-71
2021/04/15 04:08:09;;;;;;;13.37;9.53;;;;;;;;;;5105751;28;20452;-71
2021/04/15 04:10:39;;;;;;;12.23;7.80;;;;;;;;;;5095740;28;20470;-72
2021/04/15 04:13:17;;;;;;;12.77;9.50;;;;;;;;;;5096268;28;20853;-71
2021/04/15 04:15:48;;;;;;;11.40;8.57;;;;;;;;;;5099042;28;20463;-71
2021/04/15 04:18:18;;;;;;;11.37;8.10;;;;;;;;;;5114419;28;20457;-71
2021/04/15 04:20:46;;;;;;;13.40;9.10;;;;;;;;;;5121370;28;20838;-70
2021/04/15 04:23:24;;;;;;;12.90;8.27;;;;;;;;;;5119992;28;20483;-71
2021/04/15 04:25:55;;;;;;;11.90;9.10;;;;;;;;;;5120328;28;20455;-71
2021/04/15 04:28:24;;;;;;;11.90;7.67;;;;;;;;;;5119443;28;20477;-71
2021/04/15 04:30:53;;;;;;;12.53;9.80;;;;;;;;;;5113472;28;20463;-71
2021/04/15 04:33:23;;;;;;;12.40;8.67;;;;;;;;;;5108110;28;20568;-71
2021/04/15 04:35:50;;;;;;;13.73;9.17;;;;;;;;;;5119682;28;20469;-70
2021/04/15 04:38:19;;;;;;;14.80;10.03;;;;;;;;;;5119468;28;20473;-71
2021/04/15 04:40:48;;;;;;;11.93;7.73;;;;;;;;;;5119054;28;20463;-71
2021/04/15 04:43:19;;;;;;;10.37;8.60;;;;;;;;;;5118267;28;20564;-71
2021/04/15 04:45:46;;;;;;;13.60;9.37;;;;;;;;;;5118901;28;20455;-70
2021/04/15 04:48:17;;;;;;;13.60;10.13;;;;;;;;;;5118975;28;20469;-72
2021/04/15 04:50:45;;;;;;;14.97;9.93;;;;;;;;;;5119207;28;20446;-71
2021/04/15 04:53:13;;;;;;;15.90;10.50;;;;;;;;;;5118804;28;20535;-70
2021/04/15 04:55:43;;;;;;;14.50;9.27;;;;;;;;;;5118466;28;20486;-70
2021/04/15 04:58:11;;;;;;;14.10;9.87;;;;;;;;;;5118560;28;20492;-71
2021/04/15 05:00:42;;;;;;;14.07;9.57;;;;;;;;;;5120078;28;20803;-71
2021/04/15 05:03:09;;;;;;;16.50;9.53;;;;;;;;;;5118262;28;20462;-71
2021/04/15 05:05:37;;;;;;;14.47;10.00;;;;;;;;;;5119901;28;20461;-71
2021/04/15 05:08:10;;;;;;;13.60;10.77;;;;;;;;;;5118801;28;20458;-71
2021/04/15 05:10:38;;;;;;;17.63;11.30;;;;;;;;;;5117433;28;20450;-71
2021/04/15 05:13:08;;;;;;;18.33;12.30;;;;;;;;;;5119239;28;20487;-71
2021/04/15 05:15:39;;;;;;;20.13;12.50;;;;;;;;;;5118342;28;20709;-71
2021/04/15 05:18:09;;;;;;;13.50;10.27;;;;;;;;;;5118482;28;20519;-71
2021/04/15 05:20:36;;;;;;;16.97;12.67;;;;;;;;;;5119391;28;20532;-71
2021/04/15 05:23:09;;;;;;;18.00;11.63;;;;;;;;;;5117288;28;20512;-71
2021/04/15 05:25:38;;;;;;;13.47;9.77;;;;;;;;;;5118260;28;20855;-71
2021/04/15 05:28:09;;;;;;;12.27;10.77;;;;;;;;;;5117688;28;20528;-71
2021/04/15 05:30:40;;;;;;;12.10;9.63;;;;;;;;;;5116091;28;20462;-71
2021/04/15 05:33:13;;;;;;;15.40;10.87;;;;;;;;;;5117324;28;20484;-71
2021/04/15 05:35:43;;;;;;;14.30;10.50;;;;;;;;;;5116737;28;20509;-70
2021/04/15 05:38:13;;;;;;;18.20;11.03;;;;;;;;;;5117442;28;20542;-70
2021/04/15 05:41:03;;;;;;;17.40;8.30;;;;;;;;;;5116180;28;20714;-71
2021/04/15 05:43:33;;;;;;;16.03;8.77;;;;;;;;;;5116423;28;20489;-71
2021/04/15 05:46:08;;;;;;;12.60;8.43;;;;;;;;;;5117111;28;20737;-71
2021/04/15 05:48:38;;;;;;;10.97;8.03;;;;;;;;;;5116005;28;20519;-71
2021/04/15 05:51:08;;;;;;;14.70;7.73;;;;;;;;;;5116226;28;20477;-70
2021/04/15 05:53:45;;;;;;;9.90;7.03;;;;;;;;;;5116073;28;20589;-71
2021/04/15 05:56:17;;;;;;;11.07;6.73;;;;;;;;;;5115516;28;20430;-70
2021/04/15 05:58:48;;;;;;;14.03;6.23;;;;;;;;;;5116184;28;20451;-71
2021/04/15 06:01:19;;;;;;;9.67;5.97;;;;;;;;;;5116377;28;20482;-71
2021/04/15 06:03:57;;;;;;;14.77;7.10;;;;;;;;;;5116217;28;20462;-71
2021/04/15 06:06:31;;;;;;;11.00;6.10;;;;;;;;;;5116483;28;20454;-72
2021/04/15 06:09:00;;;;;;;8.60;6.00;;;;;;;;;;5116441;28;20853;-70
2021/04/15 06:11:42;;;;;;;9.40;6.30;;;;;;;;;;5115938;28;20477;-71
2021/04/15 06:14:14;;;;;;;13.13;6.20;;;;;;;;;;5114857;28;20483;-72
2021/04/15 06:16:45;;;;;;;8.87;5.57;;;;;;;;;;5116008;28;20444;-71
2021/04/15 06:19:15;;;;;;;12.03;6.90;;;;;;;;;;5118935;28;20500;-71
2021/04/15 06:21:44;;;;;;;12.43;7.23;;;;;;;;;;5116570;28;20478;-71
2021/04/15 06:24:14;;;;;;;8.37;4.87;;;;;;;;;;5118496;28;20862;-72
2021/04/15 06:26:43;;;;;;;7.87;6.13;;;;;;;;;;5120641;28;20436;-72
2021/04/15 06:29:18;;;;;;;12.30;7.37;;;;;;;;;;5115805;28;20897;-72
2021/04/15 06:31:48;;;;;;;9.40;6.30;;;;;;;;;;5116011;28;20910;-71
2021/04/15 06:34:22;;;;;;;7.00;5.00;;;;;;;;;;5115800;28;20996;-73
2021/04/15 06:36:54;;;;;;;11.53;7.17;;;;;;;;;;5117167;28;20453;-72
2021/04/15 06:39:23;;;;;;;10.63;6.07;;;;;;;;;;5115933;28;20859;-71
2021/04/15 06:42:10;;;;;;;10.27;6.47;;;;;;;;;;5114618;28;20818;-71
2021/04/15 06:45:00;;;;;;;10.37;7.47;;;;;;;;;;5118795;28;20815;-72
2021/04/15 06:47:45;;;;;;;12.63;6.93;;;;;;;;;;5116275;28;20440;-71
2021/04/15 06:50:18;;;;;;;11.93;7.47;;;;;;;;;;5118157;28;20727;-72
2021/04/15 06:52:59;;;;;;;22.80;12.53;;;;;;;;;;5116648;28;20453;-72
2021/04/15 06:55:37;;;;;;;12.20;8.37;;;;;;;;;;5117832;28;20439;-72
2021/04/15 06:58:25;;;;;;;13.70;8.47;;;;;;;;;;5115093;28;20843;-71
2021/04/15 07:01:13;;;;;;;9.33;7.40;;;;;;;;;;5081928;28;20775;-72
2021/04/15 07:03:46;;;;;;;12.70;6.87;;;;;;;;;;5104083;28;20485;-72
2021/04/15 07:06:33;;;;;;;12.03;7.20;;;;;;;;;;5115949;28;20455;-71
2021/04/15 07:09:20;;;;;;;11.03;8.27;;;;;;;;;;5115980;28;20455;-72
2021/04/15 07:12:02;;;;;;;10.70;7.07;;;;;;;;;;5116209;28;20447;-71
2021/04/15 07:14:35;;;;;;;16.20;8.30;;;;;;;;;;5115699;28;21102;-71
2021/04/15 07:17:22;;;;;;;12.47;8.43;;;;;;;;;;5115792;28;20451;-71
2021/04/15 07:20:07;;;;;;;10.57;7.07;;;;;;;;;;5116314;28;20555;-71
2021/04/15 07:23:00;;;;;;;12.57;7.27;;;;;;;;;;5116039;28;20918;-73
2021/04/15 07:25:38;;;;;;;13.20;8.00;;;;;;;;;;5116722;28;20450;-70
2021/04/15 07:28:23;;;;;;;11.57;7.60;;;;;;;;;;5115845;28;20435;-70
2021/04/15 07:31:06;;;;;;;10.50;6.80;;;;;;;;;;5116666;28;20442;-70
2021/04/15 07:33:45;;;;;;;7.37;4.97;;;;;;;;;;5113571;28;20551;-71
2021/04/15 07:36:35;;;;;;;8.57;4.80;;;;;;;;;;5114881;28;20728;-72
2021/04/15 07:39:19;;;;;;;8.97;6.10;;;;;;;;;;5111555;28;20454;-71
2021/04/15 07:42:06;;;;;;;10.50;6.87;;;;;;;;;;5115447;28;20443;-72
2021/04/15 07:44:36;;;;;;;10.67;5.97;;;;;;;;;;5116314;28;20455;-71
2021/04/15 07:47:17;;;;;;;8.10;5.80;;;;;;;;;;5114521;28;20905;-71
2021/04/15 07:49:57;;;;;;;7.50;4.83;;;;;;;;;;5095776;28;20527;-71
2021/04/15 07:52:39;;;;;;;8.73;5.33;;;;;;;;;;5099212;28;20737;-71
2021/04/15 07:55:40;;;;;;;8.53;5.27;;;;;;;;;;5099346;28;20570;-72
2021/04/15 07:58:24;;;;;;;9.47;4.93;;;;;;;;;;5048407;28;20463;-72
2021/04/15 08:01:12;;;;;;;7.83;5.37;;;;;;;;;;5118995;28;20537;-71
2021/04/15 08:03:58;;;;;;;8.30;5.50;;;;;;;;;;5119382;28;20443;-71
2021/04/15 08:06:41;;;;;;;14.90;5.27;;;;;;;;;;5101318;28;20444;-71
2021/04/15 08:09:20;;;;;;;5.87;4.57;;;;;;;;;;5098868;28;20501;-71
2021/04/15 08:11:54;;;;;;;8.67;4.70;;;;;;;;;;5098143;28;20450;-71
2021/04/15 08:14:35;;;;;;;10.30;4.90;;;;;;;;;;5098039;28;20546;-71
2021/04/15 08:17:09;;;;;;;12.40;5.97;;;;;;;;;;5098537;28;20782;-71
2021/04/15 08:20:05;;;;;;;6.80;4.27;;;;;;;;;;5098392;28;20463;-70
2021/04/15 08:22:50;;;;;;;7.60;4.67;;;;;;;;;;5052224;28;20451;-70
2021/04/15 08:25:20;;;;;;;15.27;5.80;;;;;;;;;;5098650;28;20813;-71
2021/04/15 08:27:59;;;;;;;15.07;5.27;;;;;;;;;;5103326;28;20538;-71
2021/04/15 08:30:37;;;;;;;7.23;4.90;;;;;;;;;;5119975;28;20455;-70
2021/04/15 08:33:23;;;;;;;12.43;4.23;;;;;;;;;;5119811;28;20733;-71
2021/04/15 08:36:14;;;;;;;6.77;4.47;;;;;;;;;;5119245;28;20451;-71
2021/04/15 08:38:49;;;;;;;10.67;4.37;;;;;;;;;;5098232;28;20757;-70
2021/04/15 08:41:25;;;;;;;7.50;4.27;;;;;;;;;;5118339;28;20777;-71
2021/04/15 08:44:08;;;;;;;5.73;4.10;;;;;;;;;;5104644;28;20463;-70
2021/04/15 08:46:42;;;;;;;5.00;3.17;;;;;;;;;;5097910;28;20831;-70
2021/04/15 08:49:14;;;;;;;6.17;3.93;;;;;;;;;;5109444;28;20447;-71
2021/04/15 08:51:59;;;;;;;5.40;3.83;;;;;;;;;;5121510;28;20464;-73
2021/04/15 08:54:36;;;;;;;6.00;3.60;;;;;;;;;;5101434;28;20507;-72
2021/04/15 08:57:20;;;;;;;7.40;3.80;;;;;;;;;;5098687;28;20470;-70
2021/04/15 08:59:53;;;;;;;6.57;2.87;;;;;;;;;;5096847;28;20455;-70
2021/04/15 09:02:25;;;;;;;4.97;3.47;;;;;;;;;;5105591;28;20463;-69
2021/04/15 09:04:58;;;;;;;8.30;5.00;;;;;;;;;;5116090;28;20534;-72
2021/04/15 09:07:33;;;;;;;6.20;3.70;;;;;;;;;;5118076;28;20530;-71
2021/04/15 09:10:11;;;;;;;3.43;2.60;;;;;;;;;;5117250;28;20458;-70
2021/04/15 09:12:50;;;;;;;5.07;2.57;;;;;;;;;;5118084;28;20467;-71
2021/04/15 09:15:20;;;;;;;4.80;2.37;;;;;;;;;;5118710;28;20479;-70
2021/04/15 09:17:53;;;;;;;3.20;2.70;;;;;;;;;;5117882;28;20459;-70
2021/04/15 09:20:23;;;;;;;3.93;2.33;;;;;;;;;;5117858;28;20551;-71
2021/04/15 09:23:05;;;;;;;3.70;2.77;;;;;;;;;;5117968;28;20523;-71
2021/04/15 09:25:40;;;;;;;17.43;3.43;;;;;;;;;;5116516;28;20531;-70
2021/04/15 09:28:09;;;;;;;3.20;2.17;;;;;;;;;;5115070;28;20463;-71
2021/04/15 09:30:43;;;;;;;2.83;2.00;;;;;;;;;;5117401;28;20546;-71
2021/04/15 09:33:20;;;;;;;2.17;1.40;;;;;;;;;;5118436;28;20459;-71
2021/04/15 09:36:03;;;;;;;4.23;1.80;;;;;;;;;;5117877;28;20487;-72
2021/04/15 09:38:49;;;;;;;3.97;1.60;;;;;;;;;;5115511;28;20466;-71
2021/04/15 09:41:35;;;;;;;2.80;1.90;;;;;;;;;;5117893;28;20431;-71
2021/04/15 09:44:16;;;;;;;4.10;1.77;;;;;;;;;;5117478;28;20462;-71
2021/04/15 09:46:51;;;;;;;4.17;2.03;;;;;;;;;;5117750;28;20443;-71
2021/04/15 09:49:28;;;;;;;2.60;1.73;;;;;;;;;;5117064;28;20445;-71
2021/04/15 09:52:11;;;;;;;1.40;0.80;;;;;;;;;;5117387;28;20920;-71
2021/04/15 09:54:58;;;;;;;2.67;1.00;;;;;;;;;;5116915;28;20486;-72
2021/04/15 09:57:44;;;;;;;1.90;1.07;;;;;;;;;;5113688;28;20462;-71
2021/04/15 10:00:16;;;;;;;2.07;1.00;;;;;;;;;;5096807;28;20471;-71
2021/04/15 10:03:02;;;;;;;1.90;1.00;;;;;;;;;;5102282;28;20434;-71
2021/04/15 10:05:50;;;;;;;2.90;1.37;;;;;;;;;;5108836;28;20464;-71
2021/04/15 10:08:27;;;;;;;1.97;1.00;;;;;;;;;;5109688;28;20448;-71
2021/04/15 10:11:15;;;;;;;1.57;0.93;;;;;;;;;;5099102;28;20778;-71
2021/04/15 10:13:48;;;;;;;2.27;0.90;;;;;;;;;;5115949;28;20483;-72
2021/04/15 10:16:22;;;;;;;3.37;1.10;;;;;;;;;;5100058;28;20925;-71
2021/04/15 10:19:12;;;;;;;1.40;0.70;;;;;;;;;;5110000;28;20550;-72
2021/04/15 10:21:47;;;;;;;1.40;0.73;;;;;;;;;;5114478;28;20462;-71
2021/04/15 10:24:23;;;;;;;3.40;0.93;;;;;;;;;;5105545;28;20952;-71
2021/04/15 10:27:09;;;;;;;1.73;0.70;;;;;;;;;;5113348;28;20862;-71
2021/04/15 10:30:03;;;;;;;2.77;0.90;;;;;;;;;;5112916;28;20455;-70
2021/04/15 10:32:40;;;;;;;2.27;1.07;;;;;;;;;;5076531;28;20451;-71
2021/04/15 10:35:25;;;;;;;3.93;1.10;;;;;;;;;;5116923;28;20482;-71
2021/04/15 10:38:25;;;;;;;1.70;1.00;;;;;;;;;;5116192;28;20452;-71
2021/04/15 10:40:56;;;;;;;1.60;0.90;;;;;;;;;;5033315;28;20446;-70
2021/04/15 10:43:41;;;;;;;1.67;0.80;;;;;;;;;;5032929;28;20454;-70
2021/04/15 10:46:20;;;;;;;1.90;0.80;;;;;;;;;;5082691;28;20447;-71
2021/04/15 10:48:52;;;;;;;1.50;0.90;;;;;;;;;;5115625;28;20477;-70
2021/04/15 10:51:29;;;;;;;2.40;1.13;;;;;;;;;;5116026;28;20451;-71
2021/04/15 10:54:03;;;;;;;7.07;1.00;;;;;;;;;;5116625;28;20582;-71
2021/04/15 10:56:48;;;;;;;1.10;0.53;;;;;;;;;;5115752;28;20448;-71
2021/04/15 10:59:27;;;;;;;6.00;1.13;;;;;;;;;;5115767;28;20470;-72
2021/04/15 11:02:09;;;;;;;3.37;1.00;;;;;;;;;;5098934;28;20454;-71
2021/04/15 11:04:36;;;;;;;1.70;0.90;;;;;;;;;;5115383;28;20474;-71
2021/04/15 11:07:08;;;;;;;2.40;1.10;;;;;;;;;;5115553;28;20455;-71
2021/04/15 11:09:37;;;;;;;4.00;1.00;;;;;;;;;;5116152;28;20550;-71
2021/04/15 11:12:20;;;;;;;5.03;2.27;;;;;;;;;;5115898;28;20462;-72
2021/04/15 11:15:22;;;;;;;1.50;0.87;;;;;;;;;;5110397;28;20491;-70
2021/04/15 11:17:55;;;;;;;2.27;0.70;;;;;;;;;;5061371;28;20447;-70
2021/04/15 11:20:32;;;;;;;3.17;0.87;;;;;;;;;;5102248;28;20470;-71
2021/04/15 11:23:34;;;;;;;1.93;0.80;;;;;;;;;;5094007;28;20458;-70
2021/04/15 11:26:14;;;;;;;1.57;0.80;;;;;;;;;;5099371;28;20447;-70
2021/04/15 11:28:43;;;;;;;2.33;1.10;;;;;;;;;;5115760;28;20434;-71
2021/04/15 11:31:38;;;;;;;1.30;0.60;;;;;;;;;;5119567;28;20486;-72
2021/04/15 11:34:11;;;;;;;6.10;1.10;;;;;;;;;;5072463;28;20471;-71
2021/04/15 11:36:40;;;;;;;1.70;0.80;;;;;;;;;;5118781;28;20813;-71
2021/04/15 11:39:11;;;;;;;1.87;1.10;;;;;;;;;;5101123;28;20512;-71
2021/04/15 11:41:44;;;;;;;2.90;1.43;;;;;;;;;;5118331;28;20449;-70
2021/04/15 11:44:14;;;;;;;3.53;1.00;;;;;;;;;;5119547;28;20524;-71
2021/04/15 11:46:51;;;;;;;1.33;0.77;;;;;;;;;;5119830;28;20475;-70
2021/04/15 11:49:25;;;;;;;6.00;4.07;;;;;;;;;;5118072;28;20498;-71
2021/04/15 11:51:58;;;;;;;1.63;0.63;;;;;;;;;;5117964;28;20486;-70
2021/04/15 11:54:29;;;;;;;1.73;0.83;;;;;;;;;;5109527;28;20750;-70
2021/04/15 11:56:58;;;;;;;2.97;1.50;;;;;;;;;;5113190;28;21052;-72
2021/04/15 11:59:30;;;;;;;3.70;2.20;;;;;;;;;;5116997;28;20447;-70
2021/04/15 12:02:15;;;;;;;1.77;0.90;;;;;;;;;;5118128;28;20466;-71
2021/04/15 12:04:44;;;;;;;1.83;1.10;;;;;;;;;;5137281;27;20454;-71
2021/04/15 12:10:22;;;;;;;3.10;1.20;;;;;;;;;;5138096;27;20629;-71
2021/04/15 12:12:52;;;;;;;1.90;0.80;;;;;;;;;;5139293;27;20458;-70
2021/04/15 12:15:22;;;;;;;3.13;1.20;;;;;;;;;;5139542;27;20521;-71
2021/04/15 12:17:53;;;;;;;2.10;1.00;;;;;;;;;;5139629;27;20486;-71
2021/04/15 12:20:26;;;;;;;2.07;1.10;;;;;;;;;;5135231;27;20501;-71
2021/04/15 12:22:59;;;;;;;2.60;1.23;;;;;;;;;;5118137;28;20520;-71
2021/04/15 12:25:30;;;;;;;1.40;0.80;;;;;;;;;;5119120;28;20520;-70
2021/04/15 12:28:00;;;;;;;1.70;0.90;;;;;;;;;;5118941;28;20499;-70
2021/04/15 12:30:31;;;;;;;1.30;0.70;;;;;;;;;;5118117;28;20451;-71
2021/04/15 12:33:04;;;;;;;1.80;0.90;;;;;;;;;;5118371;28;20482;-71
2021/04/15 12:35:42;;;;;;;1.73;0.80;;;;;;;;;;5117723;28;20487;-72
2021/04/15 12:38:13;;;;;;;2.33;0.90;;;;;;;;;;5118056;28;20597;-71
2021/04/15 12:40:41;;;;;;;2.67;1.30;;;;;;;;;;5117886;28;20452;-70
2021/04/15 12:43:12;;;;;;;2.53;1.00;;;;;;;;;;5117516;28;20517;-71
2021/04/15 12:45:42;;;;;;;1.60;0.87;;;;;;;;;;5117975;28;20448;-71
2021/04/15 12:48:11;;;;;;;1.53;0.90;;;;;;;;;;5117217;28;20463;-71
2021/04/15 12:50:39;;;;;;;1.87;0.90;;;;;;;;;;5099594;28;20880;-71
2021/04/15 12:53:07;;;;;;;2.50;0.97;;;;;;;;;;5097122;28;21051;-75
2021/04/15 12:55:40;;;;;;;4.70;1.17;;;;;;;;;;5097181;28;21073;-72
2021/04/15 12:58:12;;;;;;;1.50;0.90;;;;;;;;;;5097303;28;20536;-72
2021/04/15 13:01:04;;;;;;;1.60;0.70;;;;;;;;;;5097612;28;20452;-71
2021/04/15 13:03:41;;;;;;;2.57;1.20;;;;;;;;;;5098936;28;20736;-72
2021/04/15 13:06:10;;;;;;;6.77;1.33;;;;;;;;;;5117994;28;20447;-70
2021/04/15 13:08:46;;;;;;;5.40;1.17;;;;;;;;;;5116642;28;20518;-70
2021/04/15 13:11:32;;;;;;;2.33;0.83;;;;;;;;;;5117573;28;20458;-70
2021/04/15 13:14:01;;;;;;;2.17;0.83;;;;;;;;;;5117375;28;20573;-71
2021/04/15 13:16:43;;;;;;;2.80;0.93;;;;;;;;;;5117897;28;20447;-70
2021/04/15 13:19:38;;;;;;;2.57;1.10;;;;;;;;;;5112195;28;20498;-71
2021/04/15 13:22:14;;;;;;;1.30;0.70;;;;;;;;;;5116159;28;20451;-71
2021/04/15 13:24:43;;;;;;;1.40;0.83;;;;;;;;;;5116718;28;20499;-71
2021/04/15 13:27:28;;;;;;;2.50;0.93;;;;;;;;;;5116951;28;20461;-71
2021/04/15 13:30:09;;;;;;;1.70;1.00;;;;;;;;;;5117192;28;20451;-71
2021/04/15 13:32:51;;;;;;;1.67;0.97;;;;;;;;;;5117993;28;20454;-71
2021/04/15 13:35:23;;;;;;;3.33;1.00;;;;;;;;;;5115333;28;20486;-71
2021/04/15 13:37:52;;;;;;;1.50;0.90;;;;;;;;;;5115830;28;20455;-71
2021/04/15 13:40:24;;;;;;;2.20;1.20;;;;;;;;;;5116457;28;20462;-71
2021/04/15 13:42:51;;;;;;;4.07;1.40;;;;;;;;;;5115618;28;20477;-71
2021/04/15 13:45:39;;;;;;;5.47;1.37;;;;;;;;;;5115174;28;20447;-71
2021/04/15 13:48:08;;;;;;;2.63;1.50;;;;;;;;;;5116479;28;20569;-72
2021/04/15 13:50:56;;;;;;;2.23;1.00;;;;;;;;;;5115432;28;20861;-71
2021/04/15 13:53:42;;;;;;;2.90;1.20;;;;;;;;;;5110326;28;20489;-72
2021/04/15 13:56:10;;;;;;;1.40;0.80;;;;;;;;;;5115412;28;20454;-71
2021/04/15 13:58:39;;;;;;;2.47;1.47;;;;;;;;;;5115925;28;20502;-71
2021/04/15 14:01:26;;;;;;;2.90;1.13;;;;;;;;;;5095975;28;20609;-72
2021/04/15 14:03:53;;;;;;;2.30;0.90;;;;;;;;;;5099255;27;20452;-71
2021/04/15 14:06:23;;;;;;;1.60;0.93;;;;;;;;;;5116323;28;20455;-72
2021/04/15 14:09:05;;;;;;;2.70;1.10;;;;;;;;;;5096134;28;20440;-72
2021/04/15 14:11:39;;;;;;;1.57;0.90;;;;;;;;;;5095249;28;20470;-72
2021/04/15 14:14:23;;;;;;;2.93;1.17;;;;;;;;;;5111833;28;20598;-71
2021/04/15 14:16:52;;;;;;;2.13;0.97;;;;;;;;;;5111171;28;20862;-73
2021/04/15 14:19:27;;;;;;;2.23;1.13;;;;;;;;;;5115552;28;20435;-75
2021/04/15 14:21:56;;;;;;;2.13;1.10;;;;;;;;;;5115781;28;20445;-71
2021/04/15 14:24:28;;;;;;;2.27;0.90;;;;;;;;;;5115640;28;20444;-71
2021/04/15 14:27:00;;;;;;;1.63;0.83;;;;;;;;;;5117249;27;20454;-71
2021/04/15 14:29:31;;;;;;;1.97;0.80;;;;;;;;;;5115851;28;20863;-70
2021/04/15 14:32:02;;;;;;;3.33;0.80;;;;;;;;;;5116238;28;20542;-71
2021/04/15 14:34:39;;;;;;;3.57;0.90;;;;;;;;;;5115062;28;20479;-70
2021/04/15 14:37:11;;;;;;;2.93;1.23;;;;;;;;;;5113152;28;20814;-71
2021/04/15 14:39:39;;;;;;;2.83;1.50;;;;;;;;;;5113242;28;20451;-70
2021/04/15 14:42:09;;;;;;;1.73;1.10;;;;;;;;;;5115192;28;20455;-71
2021/04/15 14:44:44;;;;;;;3.90;1.17;;;;;;;;;;5115023;28;20448;-71
2021/04/15 14:47:17;;;;;;;1.87;1.27;;;;;;;;;;5111212;27;20526;-71
2021/04/15 14:49:59;;;;;;;1.50;0.90;;;;;;;;;;5120588;27;20781;-70
2021/04/15 14:52:31;;;;;;;1.57;1.10;;;;;;;;;;5113277;28;21050;-71
2021/04/15 14:54:58;;;;;;;1.70;0.90;;;;;;;;;;5114804;28;20498;-71
2021/04/15 14:57:32;;;;;;;1.60;0.70;;;;;;;;;;5115414;28;20523;-72
2021/04/15 15:00:04;;;;;;;1.87;1.10;;;;;;;;;;5113582;28;20447;-71
2021/04/15 15:02:34;;;;;;;2.27;0.80;;;;;;;;;;5114729;28;20910;-72
2021/04/15 15:05:02;;;;;;;1.80;0.90;;;;;;;;;;5114748;28;20447;-71
2021/04/15 15:07:32;;;;;;;1.70;0.90;;;;;;;;;;5113945;28;20490;-71
2021/04/15 15:10:00;;;;;;;1.60;0.83;;;;;;;;;;5114581;28;20447;-71
2021/04/15 15:12:29;;;;;;;1.93;1.23;;;;;;;;;;5115288;28;20458;-71
2021/04/15 15:14:58;;;;;;;1.60;0.90;;;;;;;;;;5098657;28;20582;-71
2021/04/15 15:17:27;;;;;;;1.70;1.00;;;;;;;;;;5094958;28;20453;-71
2021/04/15 15:19:55;;;;;;;1.60;1.10;;;;;;;;;;5095447;28;20448;-71
2021/04/15 15:22:28;;;;;;;10.83;1.13;;;;;;;;;;5134984;28;20462;-70
2021/04/15 15:24:55;;;;;;;2.00;1.10;;;;;;;;;;5135460;28;20446;-70